sensor_id;sensor_type;location;lat;lon;timestamp;pressure;altitude;pressure_sealevel;temperature;humidity
81686;BME280;71102;50.960;6.888;2023-07-13T00:01:23;101052.06;;;18.83;46.75
81686;BME280;71102;50.960;6.888;2023-07-13T00:03:48;101052.88;;;18.85;46.95
81686;BME280;71102;50.960;6.888;2023-07-13T00:06:14;101050.28;;;18.82;46.99
81686;BME280;71102;50.960;6.888;2023-07-13T00:08:39;101050.44;;;18.76;47.31
81686;BME280;71102;50.960;6.888;2023-07-13T00:11:04;101055.94;;;18.70;47.40
81686;BME280;71102;50.960;6.888;2023-07-13T00:13:30;101051.56;;;18.66;47.58
81686;BME280;71102;50.960;6.888;2023-07-13T00:15:57;101055.09;;;18.66;47.64
81686;BME280;71102;50.960;6.888;2023-07-13T00:18:23;101057.03;;;18.61;47.92
81686;BME280;71102;50.960;6.888;2023-07-13T00:20:49;101063.47;;;18.53;48.13
81686;BME280;71102;50.960;6.888;2023-07-13T00:23:14;101065.25;;;18.52;48.42
81686;BME280;71102;50.960;6.888;2023-07-13T00:25:39;101058.16;;;18.50;48.64
81686;BME280;71102;50.960;6.888;2023-07-13T00:28:05;101051.84;;;18.52;48.48
81686;BME280;71102;50.960;6.888;2023-07-13T00:30:30;101065.22;;;18.54;48.38
81686;BME280;71102;50.960;6.888;2023-07-13T00:32:57;101067.28;;;18.43;48.58
81686;BME280;71102;50.960;6.888;2023-07-13T00:35:26;101067.50;;;18.29;48.99
81686;BME280;71102;50.960;6.888;2023-07-13T00:37:51;101064.88;;;18.26;48.99
81686;BME280;71102;50.960;6.888;2023-07-13T00:40:18;101064.13;;;18.21;49.22
81686;BME280;71102;50.960;6.888;2023-07-13T00:42:44;101066.91;;;18.15;49.43
81686;BME280;71102;50.960;6.888;2023-07-13T00:47:41;101061.66;;;18.09;49.74
81686;BME280;71102;50.960;6.888;2023-07-13T00:50:10;101060.09;;;17.99;49.99
81686;BME280;71102;50.960;6.888;2023-07-13T00:52:41;101055.66;;;17.96;50.20
81686;BME280;71102;50.960;6.888;2023-07-13T00:55:07;101063.69;;;17.98;49.84
81686;BME280;71102;50.960;6.888;2023-07-13T00:57:34;101057.59;;;17.90;50.23
81686;BME280;71102;50.960;6.888;2023-07-13T01:00:03;101054.03;;;17.88;50.63
81686;BME280;71102;50.960;6.888;2023-07-13T01:02:29;101047.81;;;17.87;50.42
81686;BME280;71102;50.960;6.888;2023-07-13T01:04:56;101053.22;;;17.86;50.70
81686;BME280;71102;50.960;6.888;2023-07-13T01:07:22;101051.38;;;17.88;50.70
81686;BME280;71102;50.960;6.888;2023-07-13T01:09:47;101048.59;;;17.92;50.49
81686;BME280;71102;50.960;6.888;2023-07-13T01:12:13;101053.06;;;17.92;50.65
81686;BME280;71102;50.960;6.888;2023-07-13T01:14:38;101053.16;;;17.89;50.71
81686;BME280;71102;50.960;6.888;2023-07-13T01:17:04;101049.69;;;17.82;50.77
81686;BME280;71102;50.960;6.888;2023-07-13T01:19:37;101053.25;;;17.83;51.12
81686;BME280;71102;50.960;6.888;2023-07-13T01:22:05;101054.00;;;17.89;50.77
81686;BME280;71102;50.960;6.888;2023-07-13T01:24:32;101048.69;;;17.88;51.08
81686;BME280;71102;50.960;6.888;2023-07-13T01:26:57;101051.56;;;17.79;51.00
81686;BME280;71102;50.960;6.888;2023-07-13T01:29:22;101055.25;;;17.73;51.44
81686;BME280;71102;50.960;6.888;2023-07-13T01:31:48;101055.28;;;17.72;51.22
81686;BME280;71102;50.960;6.888;2023-07-13T01:34:13;101055.28;;;17.72;51.29
81686;BME280;71102;50.960;6.888;2023-07-13T01:36:38;101056.06;;;17.75;51.38
81686;BME280;71102;50.960;6.888;2023-07-13T01:39:05;101052.44;;;17.78;51.13
81686;BME280;71102;50.960;6.888;2023-07-13T01:41:30;101059.72;;;17.73;51.57
81686;BME280;71102;50.960;6.888;2023-07-13T01:43:55;101050.09;;;17.61;51.97
81686;BME280;71102;50.960;6.888;2023-07-13T01:46:20;101045.72;;;17.57;52.06
81686;BME280;71102;50.960;6.888;2023-07-13T01:48:46;101060.84;;;17.60;52.19
81686;BME280;71102;50.960;6.888;2023-07-13T01:51:11;101057.25;;;17.59;52.40
81686;BME280;71102;50.960;6.888;2023-07-13T01:53:36;101049.22;;;17.59;52.22
81686;BME280;71102;50.960;6.888;2023-07-13T01:56:02;101050.06;;;17.63;52.40
81686;BME280;71102;50.960;6.888;2023-07-13T01:58:27;101041.16;;;17.61;52.33
81686;BME280;71102;50.960;6.888;2023-07-13T02:00:52;101044.03;;;17.52;52.69
81686;BME280;71102;50.960;6.888;2023-07-13T02:03:18;101051.16;;;17.51;52.92
81686;BME280;71102;50.960;6.888;2023-07-13T02:05:44;101046.75;;;17.49;52.82
81686;BME280;71102;50.960;6.888;2023-07-13T02:08:09;101056.56;;;17.48;52.94
81686;BME280;71102;50.960;6.888;2023-07-13T02:10:36;101060.16;;;17.49;53.05
81686;BME280;71102;50.960;6.888;2023-07-13T02:13:01;101059.19;;;17.53;52.50
81686;BME280;71102;50.960;6.888;2023-07-13T02:15:27;101058.34;;;17.49;52.79
81686;BME280;71102;50.960;6.888;2023-07-13T02:17:52;101070.91;;;17.46;52.87
81686;BME280;71102;50.960;6.888;2023-07-13T02:20:17;101062.81;;;17.49;52.94
81686;BME280;71102;50.960;6.888;2023-07-13T02:22:43;101069.16;;;17.45;53.16
81686;BME280;71102;50.960;6.888;2023-07-13T02:25:08;101069.97;;;17.48;53.01
81686;BME280;71102;50.960;6.888;2023-07-13T02:27:33;101062.78;;;17.52;52.82
81686;BME280;71102;50.960;6.888;2023-07-13T02:29:59;101064.47;;;17.56;53.22
81686;BME280;71102;50.960;6.888;2023-07-13T02:32:24;101062.66;;;17.58;53.28
81686;BME280;71102;50.960;6.888;2023-07-13T02:34:50;101062.66;;;17.58;52.97
81686;BME280;71102;50.960;6.888;2023-07-13T02:37:16;101068.94;;;17.57;52.92
81686;BME280;71102;50.960;6.888;2023-07-13T02:39:41;101074.25;;;17.58;52.65
81686;BME280;71102;50.960;6.888;2023-07-13T02:42:06;101067.16;;;17.56;53.33
81686;BME280;71102;50.960;6.888;2023-07-13T02:44:32;101074.22;;;17.60;52.18
81686;BME280;71102;50.960;6.888;2023-07-13T02:46:57;101069.75;;;17.62;52.60
81686;BME280;71102;50.960;6.888;2023-07-13T02:49:22;101074.19;;;17.63;52.62
81686;BME280;71102;50.960;6.888;2023-07-13T02:51:48;101075.09;;;17.62;53.19
81686;BME280;71102;50.960;6.888;2023-07-13T02:54:13;101074.22;;;17.61;53.26
81686;BME280;71102;50.960;6.888;2023-07-13T02:56:40;101062.63;;;17.59;53.07
81686;BME280;71102;50.960;6.888;2023-07-13T02:59:06;101070.75;;;17.55;53.37
81686;BME280;71102;50.960;6.888;2023-07-13T03:01:31;101078.91;;;17.49;53.97
81686;BME280;71102;50.960;6.888;2023-07-13T03:03:56;101078.06;;;17.45;53.42
81686;BME280;71102;50.960;6.888;2023-07-13T03:06:22;101079.94;;;17.39;54.10
81686;BME280;71102;50.960;6.888;2023-07-13T03:08:50;101079.06;;;17.37;54.12
81686;BME280;71102;50.960;6.888;2023-07-13T03:11:18;101084.44;;;17.35;53.83
81686;BME280;71102;50.960;6.888;2023-07-13T03:13:47;101084.47;;;17.34;53.99
81686;BME280;71102;50.960;6.888;2023-07-13T03:16:13;101084.50;;;17.32;53.84
81686;BME280;71102;50.960;6.888;2023-07-13T03:18:39;101085.41;;;17.31;54.01
81686;BME280;71102;50.960;6.888;2023-07-13T03:21:07;101085.38;;;17.33;54.14
81686;BME280;71102;50.960;6.888;2023-07-13T03:23:34;101089.00;;;17.30;53.86
81686;BME280;71102;50.960;6.888;2023-07-13T03:28:28;101093.56;;;17.24;54.55
81686;BME280;71102;50.960;6.888;2023-07-13T03:31:02;101104.28;;;17.24;54.16
81686;BME280;71102;50.960;6.888;2023-07-13T03:33:29;101106.19;;;17.16;54.66
81686;BME280;71102;50.960;6.888;2023-07-13T03:35:56;101104.47;;;17.12;54.36
81686;BME280;71102;50.960;6.888;2023-07-13T03:38:22;101099.16;;;17.09;54.68
81686;BME280;71102;50.960;6.888;2023-07-13T03:40:47;101099.22;;;17.06;55.08
81686;BME280;71102;50.960;6.888;2023-07-13T03:43:13;101107.25;;;17.06;55.12
81686;BME280;71102;50.960;6.888;2023-07-13T03:45:38;101109.94;;;17.04;54.85
81686;BME280;71102;50.960;6.888;2023-07-13T03:48:04;101108.16;;;17.05;55.22
81686;BME280;71102;50.960;6.888;2023-07-13T03:50:30;101112.63;;;17.03;54.84
81686;BME280;71102;50.960;6.888;2023-07-13T03:52:56;101119.81;;;17.02;55.30
81686;BME280;71102;50.960;6.888;2023-07-13T03:55:22;101118.88;;;17.03;55.44
81686;BME280;71102;50.960;6.888;2023-07-13T03:57:47;101123.31;;;17.04;54.81
81686;BME280;71102;50.960;6.888;2023-07-13T04:00:13;101124.22;;;17.05;54.08
81686;BME280;71102;50.960;6.888;2023-07-13T04:02:41;101131.34;;;17.04;54.81
81686;BME280;71102;50.960;6.888;2023-07-13T04:05:07;101124.22;;;17.05;54.84
81686;BME280;71102;50.960;6.888;2023-07-13T04:07:32;101131.28;;;17.09;54.55
81686;BME280;71102;50.960;6.888;2023-07-13T04:09:59;101125.94;;;17.09;54.67
81686;BME280;71102;50.960;6.888;2023-07-13T04:12:24;101122.38;;;17.07;54.37
81686;BME280;71102;50.960;6.888;2023-07-13T04:14:49;101131.34;;;17.06;54.37
81686;BME280;71102;50.960;6.888;2023-07-13T04:17:15;101135.78;;;17.07;54.91
81686;BME280;71102;50.960;6.888;2023-07-13T04:19:40;101134.88;;;17.08;54.48
81686;BME280;71102;50.960;6.888;2023-07-13T04:22:05;101141.09;;;17.10;54.88
81686;BME280;71102;50.960;6.888;2023-07-13T04:24:31;101137.56;;;17.08;54.89
81686;BME280;71102;50.960;6.888;2023-07-13T04:26:56;101136.69;;;17.06;55.19
81686;BME280;71102;50.960;6.888;2023-07-13T04:29:21;101145.56;;;17.11;55.01
81686;BME280;71102;50.960;6.888;2023-07-13T04:31:47;101136.59;;;17.12;54.94
81686;BME280;71102;50.960;6.888;2023-07-13T04:34:12;101142.75;;;17.18;54.98
81686;BME280;71102;50.960;6.888;2023-07-13T04:36:37;101132.97;;;17.16;55.36
81686;BME280;71102;50.960;6.888;2023-07-13T04:39:03;101136.53;;;17.16;55.40
81686;BME280;71102;50.960;6.888;2023-07-13T04:41:28;101138.38;;;17.13;55.84
81686;BME280;71102;50.960;6.888;2023-07-13T04:43:53;101148.47;;;16.93;56.79
81686;BME280;71102;50.960;6.888;2023-07-13T04:46:19;101144.06;;;16.89;57.19
81686;BME280;71102;50.960;6.888;2023-07-13T04:48:44;101136.81;;;16.97;56.99
81686;BME280;71102;50.960;6.888;2023-07-13T04:51:10;101138.53;;;17.04;57.16
81686;BME280;71102;50.960;6.888;2023-07-13T04:53:35;101132.41;;;16.93;56.94
81686;BME280;71102;50.960;6.888;2023-07-13T04:56:02;101135.06;;;16.96;57.32
81686;BME280;71102;50.960;6.888;2023-07-13T04:58:28;101135.91;;;16.99;57.48
81686;BME280;71102;50.960;6.888;2023-07-13T05:00:59;101149.22;;;17.04;57.32
81686;BME280;71102;50.960;6.888;2023-07-13T05:03:25;101144.84;;;16.97;57.75
81686;BME280;71102;50.960;6.888;2023-07-13T05:06:02;101148.38;;;17.00;57.39
81686;BME280;71102;50.960;6.888;2023-07-13T05:08:27;101147.34;;;17.10;57.11
81686;BME280;71102;50.960;6.888;2023-07-13T05:10:52;101145.56;;;17.11;57.60
81686;BME280;71102;50.960;6.888;2023-07-13T05:13:18;101147.31;;;17.12;57.36
81686;BME280;71102;50.960;6.888;2023-07-13T05:15:44;101150.03;;;17.09;57.79
81686;BME280;71102;50.960;6.888;2023-07-13T05:18:09;101158.03;;;17.12;57.73
81686;BME280;71102;50.960;6.888;2023-07-13T05:20:34;101161.56;;;17.14;58.00
81686;BME280;71102;50.960;6.888;2023-07-13T05:23:00;101158.72;;;17.26;57.82
81686;BME280;71102;50.960;6.888;2023-07-13T05:25:25;101160.38;;;17.33;57.75
81686;BME280;71102;50.960;6.888;2023-07-13T05:27:50;101170.13;;;17.37;57.88
81686;BME280;71102;50.960;6.888;2023-07-13T05:30:16;101164.94;;;17.28;58.02
81686;BME280;71102;50.960;6.888;2023-07-13T05:32:41;101172.84;;;17.35;57.87
81686;BME280;71102;50.960;6.888;2023-07-13T05:35:07;101170.97;;;17.43;58.21
81686;BME280;71102;50.960;6.888;2023-07-13T05:37:33;101175.28;;;17.55;57.61
81686;BME280;71102;50.960;6.888;2023-07-13T05:39:58;101177.97;;;17.53;57.40
81686;BME280;71102;50.960;6.888;2023-07-13T05:42:24;101182.34;;;17.59;57.79
81686;BME280;71102;50.960;6.888;2023-07-13T05:44:49;101169.69;;;17.67;57.60
81686;BME280;71102;50.960;6.888;2023-07-13T05:47:14;101182.25;;;17.65;57.70
81686;BME280;71102;50.960;6.888;2023-07-13T05:49:40;101183.16;;;17.62;57.80
81686;BME280;71102;50.960;6.888;2023-07-13T05:52:06;101186.78;;;17.60;58.05
81686;BME280;71102;50.960;6.888;2023-07-13T05:54:31;101181.41;;;17.61;58.06
81686;BME280;71102;50.960;6.888;2023-07-13T05:56:57;101187.69;;;17.60;58.38
81686;BME280;71102;50.960;6.888;2023-07-13T05:59:22;101193.94;;;17.58;58.41
81686;BME280;71102;50.960;6.888;2023-07-13T06:01:49;101196.69;;;17.55;59.09
81686;BME280;71102;50.960;6.888;2023-07-13T06:04:14;101196.53;;;17.64;58.98
81686;BME280;71102;50.960;6.888;2023-07-13T06:06:39;101198.38;;;17.62;58.95
81686;BME280;71102;50.960;6.888;2023-07-13T06:09:05;101195.59;;;17.66;59.24
81686;BME280;71102;50.960;6.888;2023-07-13T06:11:30;101199.16;;;17.68;59.16
81686;BME280;71102;50.960;6.888;2023-07-13T06:13:56;101213.59;;;17.58;59.12
81686;BME280;71102;50.960;6.888;2023-07-13T06:16:21;101205.50;;;17.61;59.54
81686;BME280;71102;50.960;6.888;2023-07-13T06:18:47;101208.09;;;17.69;59.40
81686;BME280;71102;50.960;6.888;2023-07-13T06:21:15;101204.38;;;17.77;59.20
81686;BME280;71102;50.960;6.888;2023-07-13T06:23:41;101207.88;;;17.81;58.87
81686;BME280;71102;50.960;6.888;2023-07-13T06:26:07;101215.16;;;17.73;59.28
81686;BME280;71102;50.960;6.888;2023-07-13T06:28:33;101216.84;;;17.78;59.33
81686;BME280;71102;50.960;6.888;2023-07-13T06:30:59;101215.06;;;17.79;59.35
81686;BME280;71102;50.960;6.888;2023-07-13T06:33:25;101223.09;;;17.79;59.53
81686;BME280;71102;50.960;6.888;2023-07-13T06:35:51;101218.53;;;17.84;59.42
81686;BME280;71102;50.960;6.888;2023-07-13T06:38:16;101208.66;;;17.89;58.96
81686;BME280;71102;50.960;6.888;2023-07-13T06:40:41;101217.44;;;17.97;59.60
81686;BME280;71102;50.960;6.888;2023-07-13T06:43:07;101223.56;;;18.03;59.06
81686;BME280;71102;50.960;6.888;2023-07-13T06:45:40;101220.88;;;18.03;58.67
81686;BME280;71102;50.960;6.888;2023-07-13T06:48:05;101230.94;;;17.91;59.24
81686;BME280;71102;50.960;6.888;2023-07-13T06:50:31;101233.63;;;17.91;59.25
81686;BME280;71102;50.960;6.888;2023-07-13T06:52:56;101230.06;;;17.90;59.08
81686;BME280;71102;50.960;6.888;2023-07-13T06:55:21;101234.50;;;17.93;59.14
81686;BME280;71102;50.960;6.888;2023-07-13T06:57:47;101221.00;;;17.98;59.02
81686;BME280;71102;50.960;6.888;2023-07-13T07:00:13;101238.13;;;17.90;59.33
81686;BME280;71102;50.960;6.888;2023-07-13T07:02:38;101230.09;;;17.89;59.25
81686;BME280;71102;50.960;6.888;2023-07-13T07:05:04;101232.00;;;17.81;59.79
81686;BME280;71102;50.960;6.888;2023-07-13T07:07:29;101233.63;;;17.89;59.50
81686;BME280;71102;50.960;6.888;2023-07-13T07:09:54;101234.25;;;18.07;59.40
81686;BME280;71102;50.960;6.888;2023-07-13T07:12:20;101235.91;;;18.14;58.88
81686;BME280;71102;50.960;6.888;2023-07-13T07:14:45;101231.38;;;18.17;58.48
81686;BME280;71102;50.960;6.888;2023-07-13T07:17:10;101241.19;;;18.18;58.54
81686;BME280;71102;50.960;6.888;2023-07-13T07:19:36;101241.88;;;18.29;58.01
81686;BME280;71102;50.960;6.888;2023-07-13T07:22:01;101241.66;;;18.44;57.88
81686;BME280;71102;50.960;6.888;2023-07-13T07:24:26;101258.06;;;18.73;56.99
81686;BME280;71102;50.960;6.888;2023-07-13T07:26:52;101249.72;;;18.88;56.46
81686;BME280;71102;50.960;6.888;2023-07-13T07:29:17;101252.97;;;19.05;56.10
81686;BME280;71102;50.960;6.888;2023-07-13T07:31:43;101256.41;;;19.10;55.94
81686;BME280;71102;50.960;6.888;2023-07-13T07:34:08;101252.47;;;19.29;55.36
81686;BME280;71102;50.960;6.888;2023-07-13T07:36:34;101262.03;;;19.42;54.79
81686;BME280;71102;50.960;6.888;2023-07-13T07:38:59;101264.63;;;19.47;54.82
81686;BME280;71102;50.960;6.888;2023-07-13T07:41:24;101262.59;;;19.56;54.60
81686;BME280;71102;50.960;6.888;2023-07-13T07:43:50;101262.91;;;19.43;54.04
81686;BME280;71102;50.960;6.888;2023-07-13T07:46:15;101266.16;;;19.57;54.44
81686;BME280;71102;50.960;6.888;2023-07-13T07:48:40;101267.91;;;19.59;54.32
81686;BME280;71102;50.960;6.888;2023-07-13T07:51:06;101260.69;;;19.61;54.60
81686;BME280;71102;50.960;6.888;2023-07-13T07:53:31;101268.91;;;19.55;54.46
81686;BME280;71102;50.960;6.888;2023-07-13T07:55:56;101271.22;;;19.70;54.49
81686;BME280;71102;50.960;6.888;2023-07-13T07:58:22;101265.91;;;19.67;54.33
81686;BME280;71102;50.960;6.888;2023-07-13T08:00:47;101262.69;;;19.52;54.90
81686;BME280;71102;50.960;6.888;2023-07-13T08:03:12;101263.31;;;19.64;54.92
81686;BME280;71102;50.960;6.888;2023-07-13T08:05:38;101268.59;;;19.67;54.72
81686;BME280;71102;50.960;6.888;2023-07-13T08:08:04;101264.09;;;19.69;54.46
81686;BME280;71102;50.960;6.888;2023-07-13T08:10:29;101266.56;;;19.77;55.08
81686;BME280;71102;50.960;6.888;2023-07-13T08:12:54;101258.31;;;19.86;54.71
81686;BME280;71102;50.960;6.888;2023-07-13T08:15:20;101260.78;;;19.95;54.22
81686;BME280;71102;50.960;6.888;2023-07-13T08:17:45;101259.66;;;20.03;54.27
81686;BME280;71102;50.960;6.888;2023-07-13T08:20:11;101257.88;;;20.02;53.44
81686;BME280;71102;50.960;6.888;2023-07-13T08:22:36;101245.25;;;20.06;54.12
81686;BME280;71102;50.960;6.888;2023-07-13T08:25:02;101257.63;;;20.14;53.42
81686;BME280;71102;50.960;6.888;2023-07-13T08:27:28;101265.09;;;20.37;53.29
81686;BME280;71102;50.960;6.888;2023-07-13T08:29:54;101252.69;;;20.31;53.53
81686;BME280;71102;50.960;6.888;2023-07-13T08:32:21;101254.00;;;20.51;53.04
81686;BME280;71102;50.960;6.888;2023-07-13T08:34:47;101258.09;;;20.64;52.60
81686;BME280;71102;50.960;6.888;2023-07-13T08:37:13;101257.19;;;20.65;52.11
81686;BME280;71102;50.960;6.888;2023-07-13T08:39:38;101254.50;;;20.65;52.05
81686;BME280;71102;50.960;6.888;2023-07-13T08:42:12;101246.88;;;20.47;52.68
81686;BME280;71102;50.960;6.888;2023-07-13T08:47:24;101244.13;;;20.82;51.46
81686;BME280;71102;50.960;6.888;2023-07-13T08:49:50;101256.47;;;20.90;51.90
81686;BME280;71102;50.960;6.888;2023-07-13T08:54:52;101244.59;;;20.65;51.35
81686;BME280;71102;50.960;6.888;2023-07-13T08:57:21;101245.47;;;20.66;51.29
81686;BME280;71102;50.960;6.888;2023-07-13T08:59:47;101248.34;;;20.60;51.05
81686;BME280;71102;50.960;6.888;2023-07-13T09:05:17;101259.03;;;20.63;51.00
81686;BME280;71102;50.960;6.888;2023-07-13T09:10:25;101256.00;;;20.75;50.19
81686;BME280;71102;50.960;6.888;2023-07-13T09:13:06;101250.59;;;20.76;49.93
81686;BME280;71102;50.960;6.888;2023-07-13T09:15:38;101252.78;;;20.93;50.23
81686;BME280;71102;50.960;6.888;2023-07-13T09:18:35;101254.38;;;21.01;48.74
81686;BME280;71102;50.960;6.888;2023-07-13T09:21:18;101256.94;;;21.06;48.98
81686;BME280;71102;50.960;6.888;2023-07-13T09:23:47;101253.03;;;21.16;48.71
81686;BME280;71102;50.960;6.888;2023-07-13T09:26:18;101257.69;;;21.40;48.02
81686;BME280;71102;50.960;6.888;2023-07-13T09:28:49;101253.38;;;21.34;47.75
81686;BME280;71102;50.960;6.888;2023-07-13T09:31:24;101260.66;;;21.60;47.64
81686;BME280;71102;50.960;6.888;2023-07-13T09:33:51;101247.72;;;21.71;47.44
81686;BME280;71102;50.960;6.888;2023-07-13T09:36:21;101241.69;;;21.63;47.70
81686;BME280;71102;50.960;6.888;2023-07-13T09:38:48;101251.06;;;21.79;47.79
81686;BME280;71102;50.960;6.888;2023-07-13T09:44:09;101250.59;;;21.94;46.40
81686;BME280;71102;50.960;6.888;2023-07-13T09:46:35;101254.09;;;21.96;46.86
81686;BME280;71102;50.960;6.888;2023-07-13T09:49:00;101258.69;;;21.94;46.75
81686;BME280;71102;50.960;6.888;2023-07-13T09:51:26;101259.41;;;21.99;46.31
81686;BME280;71102;50.960;6.888;2023-07-13T09:53:51;101253.81;;;22.05;46.16
81686;BME280;71102;50.960;6.888;2023-07-13T09:56:26;101254.22;;;22.19;45.77
81686;BME280;71102;50.960;6.888;2023-07-13T09:58:52;101260.03;;;22.33;45.39
81686;BME280;71102;50.960;6.888;2023-07-13T10:01:32;101261.75;;;22.35;45.63
81686;BME280;71102;50.960;6.888;2023-07-13T10:03:57;101256.72;;;22.25;45.79
81686;BME280;71102;50.960;6.888;2023-07-13T10:06:22;101253.09;;;22.26;45.41
81686;BME280;71102;50.960;6.888;2023-07-13T10:08:50;101253.59;;;22.37;45.49
81686;BME280;71102;50.960;6.888;2023-07-13T10:11:21;101257.25;;;22.36;45.63
81686;BME280;71102;50.960;6.888;2023-07-13T10:13:54;101259.03;;;22.35;44.17
81686;BME280;71102;50.960;6.888;2023-07-13T10:16:20;101257.94;;;22.42;44.45
81686;BME280;71102;50.960;6.888;2023-07-13T10:18:49;101271.28;;;22.45;43.33
81686;BME280;71102;50.960;6.888;2023-07-13T10:21:20;101262.75;;;22.59;43.95
81686;BME280;71102;50.960;6.888;2023-07-13T10:24:15;101263.06;;;22.50;43.61
81686;BME280;71102;50.960;6.888;2023-07-13T10:26:49;101268.53;;;22.47;44.13
81686;BME280;71102;50.960;6.888;2023-07-13T10:29:17;101264.19;;;22.69;43.01
81686;BME280;71102;50.960;6.888;2023-07-13T10:31:45;101253.50;;;22.66;43.44
81686;BME280;71102;50.960;6.888;2023-07-13T10:34:11;101267.28;;;22.83;43.88
81686;BME280;71102;50.960;6.888;2023-07-13T10:36:46;101269.34;;;23.00;42.66
81686;BME280;71102;50.960;6.888;2023-07-13T10:39:27;101273.53;;;23.08;42.09
81686;BME280;71102;50.960;6.888;2023-07-13T10:42:05;101273.16;;;23.19;41.95
81686;BME280;71102;50.960;6.888;2023-07-13T10:44:33;101263.28;;;23.41;41.08
81686;BME280;71102;50.960;6.888;2023-07-13T10:47:01;101260.06;;;23.31;41.46
81686;BME280;71102;50.960;6.888;2023-07-13T10:49:29;101260.75;;;23.59;41.29
81686;BME280;71102;50.960;6.888;2023-07-13T10:51:55;101273.09;;;23.20;41.75
81686;BME280;71102;50.960;6.888;2023-07-13T10:54:27;101266.72;;;22.98;42.26
81686;BME280;71102;50.960;6.888;2023-07-13T10:57:19;101266.69;;;22.75;42.83
81686;BME280;71102;50.960;6.888;2023-07-13T11:02:28;101271.19;;;22.50;43.50
81686;BME280;71102;50.960;6.888;2023-07-13T11:04:55;101266.78;;;22.46;43.82
81686;BME280;71102;50.960;6.888;2023-07-13T11:09:58;101268.19;;;22.31;44.79
81686;BME280;71102;50.960;6.888;2023-07-13T11:25:31;101274.13;;;22.93;42.45
81686;BME280;71102;50.960;6.888;2023-07-13T11:30:59;101273.00;;;22.74;42.57
81686;BME280;71102;50.960;6.888;2023-07-13T11:36:14;101268.53;;;22.47;43.65
81686;BME280;71102;50.960;6.888;2023-07-13T11:38:47;101274.22;;;22.39;43.36
81686;BME280;71102;50.960;6.888;2023-07-13T11:41:22;101276.56;;;22.50;43.23
81686;BME280;71102;50.960;6.888;2023-07-13T11:43:54;101274.91;;;22.72;42.80
81686;BME280;71102;50.960;6.888;2023-07-13T11:46:25;101269.66;;;22.92;42.16
81686;BME280;71102;50.960;6.888;2023-07-13T11:48:51;101266.84;;;22.95;41.27
81686;BME280;71102;50.960;6.888;2023-07-13T11:51:25;101270.34;;;22.97;40.93
81686;BME280;71102;50.960;6.888;2023-07-13T11:53:52;101271.19;;;22.99;40.66
81686;BME280;71102;50.960;6.888;2023-07-13T11:56:18;101270.31;;;23.23;40.58
81686;BME280;71102;50.960;6.888;2023-07-13T11:58:44;101260.41;;;23.45;40.37
81686;BME280;71102;50.960;6.888;2023-07-13T12:01:18;101271.84;;;23.53;40.01
81686;BME280;71102;50.960;6.888;2023-07-13T12:03:45;101270.31;;;23.46;39.95
81686;BME280;71102;50.960;6.888;2023-07-13T12:06:25;101265.47;;;23.31;40.49
81686;BME280;71102;50.960;6.888;2023-07-13T12:08:51;101268.75;;;23.39;40.49
81686;BME280;71102;50.960;6.888;2023-07-13T12:11:18;101263.00;;;23.48;39.43
81686;BME280;71102;50.960;6.888;2023-07-13T12:13:44;101266.31;;;23.56;40.03
81686;BME280;71102;50.960;6.888;2023-07-13T12:18:45;101262.41;;;23.85;37.46
81686;BME280;71102;50.960;6.888;2023-07-13T12:21:13;101262.72;;;24.00;37.34
81686;BME280;71102;50.960;6.888;2023-07-13T12:23:39;101263.84;;;23.95;36.34
81686;BME280;71102;50.960;6.888;2023-07-13T12:26:06;101262.31;;;23.88;37.21
81686;BME280;71102;50.960;6.888;2023-07-13T12:28:48;101253.88;;;24.38;36.60
81686;BME280;71102;50.960;6.888;2023-07-13T12:36:26;101256.22;;;25.26;35.81
81686;BME280;71102;50.960;6.888;2023-07-13T12:38:54;101252.16;;;25.92;34.28
81686;BME280;71102;50.960;6.888;2023-07-13T12:41:19;101269.34;;;26.28;33.23
81686;BME280;71102;50.960;6.888;2023-07-13T12:43:45;101262.28;;;27.43;31.11
81686;BME280;71102;50.960;6.888;2023-07-13T12:46:19;101270.38;;;28.38;29.19
81686;BME280;71102;50.960;6.888;2023-07-13T12:48:48;101262.63;;;29.05;28.62
81686;BME280;71102;50.960;6.888;2023-07-13T12:51:14;101281.19;;;30.78;25.86
81686;BME280;71102;50.960;6.888;2023-07-13T12:53:43;101285.09;;;31.38;25.03
81686;BME280;71102;50.960;6.888;2023-07-13T12:56:22;101273.88;;;30.91;24.78
81686;BME280;71102;50.960;6.888;2023-07-13T12:58:48;101273.19;;;31.75;23.53
81686;BME280;71102;50.960;6.888;2023-07-13T13:01:14;101259.75;;;32.08;23.47
81686;BME280;71102;50.960;6.888;2023-07-13T13:03:50;101255.38;;;31.82;23.79
81686;BME280;71102;50.960;6.888;2023-07-13T13:08:42;101259.19;;;30.53;24.69
81686;BME280;71102;50.960;6.888;2023-07-13T13:11:07;101277.88;;;31.98;22.13
81686;BME280;71102;50.960;6.888;2023-07-13T13:13:32;101284.91;;;30.77;24.11
81686;BME280;71102;50.960;6.888;2023-07-13T13:16:02;101270.56;;;30.47;24.17
81686;BME280;71102;50.960;6.888;2023-07-13T13:18:29;101272.53;;;30.45;24.82
81686;BME280;71102;50.960;6.888;2023-07-13T13:20:55;101257.81;;;32.34;22.61
81686;BME280;71102;50.960;6.888;2023-07-13T13:23:20;101259.44;;;33.51;20.90
81686;BME280;71102;50.960;6.888;2023-07-13T13:25:50;101273.66;;;33.45;20.25
81686;BME280;71102;50.960;6.888;2023-07-13T13:28:17;101256.56;;;32.61;21.52
81686;BME280;71102;50.960;6.888;2023-07-13T13:30:44;101256.47;;;32.39;22.33
81686;BME280;71102;50.960;6.888;2023-07-13T13:33:12;101245.25;;;33.11;20.93
81686;BME280;71102;50.960;6.888;2023-07-13T13:35:38;101247.78;;;33.80;20.36
81686;BME280;71102;50.960;6.888;2023-07-13T13:38:10;101246.22;;;34.95;19.05
81686;BME280;71102;50.960;6.888;2023-07-13T13:40:35;101252.03;;;33.73;20.13
81686;BME280;71102;50.960;6.888;2023-07-13T13:43:01;101247.03;;;32.31;22.16